Terminal Aerodrome Forecast
Issued by NWS

Home | Current Version | Previous Version | Graphics & Text | Print | Product List | Glossary On
Versions: 1 2 3 4 5 6 7 8 9 10 11 12 13 14 15 16 17
000
FTUS43 KIWX 270300 AAA
TAFSBN
TAF AMD
KSBN 270308Z 2703/2724 32005KT 5SM BR BKN004 OVC080
      TEMPO 2703/2707 1SM BR VV004
     FM270700 03003KT P6SM SCT150
     FM271400 01007KT P6SM SCT040 BKN100=

USA.gov is the U.S. government's official web portal to all federal, state and local government web resources and services.